IGU weather

Cataratas International Airport
Foz Do Iguaçu, Paraná, Brazil

Public forecast

Using degrees Celsius for public forecast. Weather courtesy of forecast.io.

Current aviation weather report (METAR) for Cataratas International Airport

Retrieved 2020/07/12 09:00 UTC (17 minutes ago):

SBFI 120900Z 33002KT CAVOK 19/17 Q1011

Aviation forecast (TAF) for Cataratas International Airport

Retrieved 2020/07/12 06:00 UTC (3 hours ago):

TAF SBFI 120300Z 1206/1306 11004KT 9999 FEW020 TN15/1212Z TX21/1217Z BECMG 1214/1216 20004KT RMK PEA